createdAt,value
2023-03-03T00:01:21.819Z,100299.28
2023-03-03T00:03:48.608Z,100295.94
2023-03-03T00:06:15.511Z,100298.38
2023-03-03T00:08:43.024Z,100302.41
2023-03-03T00:11:10.718Z,100301.53
2023-03-03T00:13:51.172Z,100303.97
2023-03-03T00:16:31.163Z,100312.16
2023-03-03T00:18:58.648Z,100315.47
2023-03-03T00:21:31.489Z,100313.75
2023-03-03T00:24:23.210Z,100310.41
2023-03-03T00:26:56.894Z,100318.69
2023-03-03T00:29:51.071Z,100316.88
2023-03-03T00:32:23.917Z,100325.13
2023-03-03T00:34:53.823Z,100316.56
2023-03-03T00:37:34.754Z,100319.72
2023-03-03T00:40:24.055Z,100313.78
2023-03-03T00:42:55.655Z,100326.13
2023-03-03T00:45:38.242Z,100315.94
2023-03-03T00:48:24.285Z,100323.47
2023-03-03T00:50:54.320Z,100319.94
2023-03-03T00:53:24.235Z,100327.59
2023-03-03T00:55:52.817Z,100326.72
2023-03-03T00:58:21.992Z,100324.25
2023-03-03T01:00:56.539Z,100331.72
2023-03-03T01:03:26.587Z,100329.88
2023-03-03T01:05:54.490Z,100318.94
2023-03-03T01:08:22.746Z,100326.44
2023-03-03T01:10:54.450Z,100334.75
2023-03-03T01:13:26.225Z,100326.16
2023-03-03T01:15:54.098Z,100334.56
2023-03-03T01:18:21.462Z,100331.13
2023-03-03T01:20:48.298Z,100335.16
2023-03-03T01:23:15.126Z,100333.47
2023-03-03T01:25:42.139Z,100325.09
2023-03-03T01:28:09.446Z,100333.34
2023-03-03T01:30:36.495Z,100328.19
2023-03-03T01:33:03.654Z,100325.59
2023-03-03T01:35:30.912Z,100331.44
2023-03-03T01:37:59.409Z,100339.81
2023-03-03T01:40:30.782Z,100334.66
2023-03-03T01:43:00.965Z,100327.84
2023-03-03T01:45:53.286Z,100333.69
2023-03-03T01:48:34.617Z,100335.31
2023-03-03T01:51:05.259Z,100337.81
2023-03-03T01:53:51.218Z,100344.59
2023-03-03T01:56:18.656Z,100347.19
2023-03-03T01:59:23.404Z,100339.81
2023-03-03T02:01:50.652Z,100343.94
2023-03-03T02:04:19.261Z,100348.31
2023-03-03T02:06:55.501Z,100358.53
2023-03-03T02:09:35.549Z,100347.72
2023-03-03T02:12:08.700Z,100341.97
2023-03-03T02:14:35.640Z,100352.03
2023-03-03T02:17:02.739Z,100347.09
2023-03-03T02:19:51.770Z,100350.50
2023-03-03T02:22:29.958Z,100353.75
2023-03-03T02:25:06.342Z,100351.44
2023-03-03T02:27:34.470Z,100339.81
2023-03-03T02:30:16.358Z,100353.28
2023-03-03T02:32:43.304Z,100360.97
2023-03-03T02:35:29.659Z,100358.63
2023-03-03T02:38:30.950Z,100367.03
2023-03-03T02:44:52.778Z,100369.28
2023-03-03T02:47:20.192Z,100361.19
2023-03-03T02:49:54.503Z,100364.66
2023-03-03T02:52:30.225Z,100370.66
2023-03-03T02:55:46.641Z,100369.97
2023-03-03T02:58:21.622Z,100370.75
2023-03-03T03:00:55.697Z,100362.50
2023-03-03T03:06:36.561Z,100371.78
2023-03-03T03:09:16.946Z,100365.16
2023-03-03T03:11:47.532Z,100363.47
2023-03-03T03:14:19.592Z,100376.19
2023-03-03T03:16:49.326Z,100377.84
2023-03-03T03:19:18.639Z,100377.09
2023-03-03T03:21:48.459Z,100383.00
2023-03-03T03:24:16.905Z,100378.00
2023-03-03T03:26:43.948Z,100383.94
2023-03-03T03:29:11.135Z,100374.88
2023-03-03T03:31:38.308Z,100374.19
2023-03-03T03:34:05.268Z,100386.94
2023-03-03T03:36:32.074Z,100377.75
2023-03-03T03:38:58.910Z,100372.84
2023-03-03T03:41:26.774Z,100363.72
2023-03-03T03:43:53.501Z,100366.31
2023-03-03T03:46:20.256Z,100371.47
2023-03-03T03:48:47.094Z,100378.16
2023-03-03T03:51:14.066Z,100384.09
2023-03-03T03:53:41.332Z,100384.09
2023-03-03T03:56:09.364Z,100393.28
2023-03-03T03:58:36.277Z,100394.91
2023-03-03T04:01:06.986Z,100391.53
2023-03-03T04:03:34.840Z,100393.91
2023-03-03T04:06:01.602Z,100402.13
2023-03-03T04:08:28.548Z,100403.66
2023-03-03T04:10:55.778Z,100402.72
2023-03-03T04:13:23.242Z,100402.59
2023-03-03T04:15:49.986Z,100401.66
2023-03-03T04:18:16.771Z,100396.50
2023-03-03T04:20:43.593Z,100398.03
2023-03-03T04:23:10.688Z,100391.31
2023-03-03T04:25:37.456Z,100394.47
2023-03-03T04:28:05.645Z,100398.53
2023-03-03T04:30:33.011Z,100411.06
2023-03-03T04:32:59.778Z,100408.44
2023-03-03T04:35:26.594Z,100399.97
2023-03-03T04:37:54.156Z,100404.91
2023-03-03T04:40:21.086Z,100404.00
2023-03-03T04:42:48.318Z,100398.13
2023-03-03T04:45:15.032Z,100397.28
2023-03-03T04:47:41.909Z,100401.47
2023-03-03T04:50:10.721Z,100404.69
2023-03-03T04:52:38.032Z,100399.56
2023-03-03T04:55:05.488Z,100402.88
2023-03-03T04:57:32.288Z,100416.19
2023-03-03T04:59:59.082Z,100409.47
2023-03-03T05:07:03.491Z,100417.91
2023-03-03T05:10:36.885Z,100427.56
2023-03-03T05:13:03.796Z,100430.00
2023-03-03T05:15:31.094Z,100426.22
2023-03-03T05:17:58.430Z,100428.59
2023-03-03T05:20:26.409Z,100441.03
2023-03-03T05:23:32.818Z,100433.38
2023-03-03T05:26:26.577Z,100436.56
2023-03-03T05:43:54.733Z,100434.69
2023-03-03T05:46:29.464Z,100441.28
2023-03-03T05:48:56.407Z,100446.44
2023-03-03T05:51:23.374Z,100443.97
2023-03-03T05:53:50.306Z,100445.66
2023-03-03T05:56:17.244Z,100437.41
2023-03-03T05:59:04.511Z,100441.75
2023-03-03T06:01:35.057Z,100440.88
2023-03-03T06:04:06.160Z,100437.59
2023-03-03T06:06:37.157Z,100443.56
2023-03-03T06:09:04.145Z,100446.91
2023-03-03T06:11:43.811Z,100453.66
2023-03-03T06:14:15.556Z,100448.44
2023-03-03T06:20:51.989Z,100459.97
2023-03-03T06:23:22.172Z,100452.19
2023-03-03T06:25:58.734Z,100462.31
2023-03-03T06:28:41.858Z,100462.25
2023-03-03T06:31:08.715Z,100454.63
2023-03-03T06:33:50.038Z,100463.78
2023-03-03T06:36:18.077Z,100454.47
2023-03-03T06:38:56.114Z,100462.88
2023-03-03T06:41:33.424Z,100469.59
2023-03-03T06:44:32.050Z,100467.88
2023-03-03T06:54:57.892Z,100481.78
2023-03-03T06:58:44.728Z,100475.78
2023-03-03T07:01:22.560Z,100483.25
2023-03-03T07:03:49.556Z,100483.22
2023-03-03T07:06:38.183Z,100483.25
2023-03-03T07:09:17.339Z,100497.56
2023-03-03T07:11:46.487Z,100501.78
2023-03-03T07:14:19.218Z,100504.34
2023-03-03T07:16:46.489Z,100494.31
2023-03-03T07:19:32.951Z,100512.00
2023-03-03T07:22:27.857Z,100517.00
2023-03-03T07:25:01.936Z,100523.59
2023-03-03T07:27:31.377Z,100515.28
2023-03-03T07:30:24.850Z,100531.34
2023-03-03T07:32:56.514Z,100535.53
2023-03-03T07:35:42.955Z,100526.50
2023-03-03T07:38:46.215Z,100535.84
2023-03-03T07:41:20.763Z,100540.78
2023-03-03T07:44:05.541Z,100546.69
2023-03-03T07:46:44.288Z,100550.81
2023-03-03T07:49:37.683Z,100546.69
2023-03-03T07:54:45.914Z,100551.69
2023-03-03T07:57:24.896Z,100554.34
2023-03-03T08:00:16.631Z,100555.34
2023-03-03T08:03:03.236Z,100565.47
2023-03-03T08:05:30.013Z,100564.72
2023-03-03T08:08:31.109Z,100562.53
2023-03-03T08:11:00.782Z,100565.06
2023-03-03T08:13:33.067Z,100571.91
2023-03-03T08:16:04.719Z,100569.59
2023-03-03T08:18:47.684Z,100573.13
2023-03-03T08:21:25.667Z,100576.53
2023-03-03T08:23:53.706Z,100568.34
2023-03-03T08:26:22.573Z,100567.72
2023-03-03T08:28:50.640Z,100574.59
2023-03-03T08:31:28.027Z,100574.69
2023-03-03T08:34:01.590Z,100579.88
2023-03-03T08:36:28.361Z,100587.50
2023-03-03T08:38:55.500Z,100580.03
2023-03-03T08:41:22.212Z,100593.53
2023-03-03T08:43:48.985Z,100589.41
2023-03-03T08:46:16.257Z,100583.47
2023-03-03T08:48:43.063Z,100583.47
2023-03-03T08:51:09.812Z,100599.34
2023-03-03T08:53:38.144Z,100592.75
2023-03-03T08:56:06.809Z,100597.81
2023-03-03T08:58:35.993Z,100597.81
2023-03-03T09:01:04.276Z,100600.44
2023-03-03T09:03:31.511Z,100598.78
2023-03-03T09:05:58.376Z,100608.88
2023-03-03T09:08:25.147Z,100619.03
2023-03-03T09:10:51.888Z,100617.38
2023-03-03T09:13:19.973Z,100629.19
2023-03-03T09:15:48.970Z,100631.75
2023-03-03T09:18:22.768Z,100628.44
2023-03-03T09:20:54.450Z,100637.75
2023-03-03T09:23:24.108Z,100629.28
2023-03-03T09:25:52.668Z,100633.63
2023-03-03T09:28:30.464Z,100632.88
2023-03-03T09:31:02.177Z,100637.19
2023-03-03T09:33:42.897Z,100639.00
2023-03-03T09:36:23.071Z,100641.66
2023-03-03T09:38:50.223Z,100639.25
2023-03-03T09:41:43.470Z,100644.31
2023-03-03T09:45:06.887Z,100646.03
2023-03-03T09:48:08.686Z,100641.72
2023-03-03T09:50:50.726Z,100641.81
2023-03-03T09:53:42.738Z,100638.63
2023-03-03T09:56:19.352Z,100630.31
2023-03-03T09:59:23.959Z,100639.03
2023-03-03T10:01:54.117Z,100634.34
2023-03-03T10:04:43.757Z,100636.38
2023-03-03T10:07:54.279Z,100637.56
2023-03-03T10:10:53.511Z,100634.25
2023-03-03T10:14:03.796Z,100637.56
2023-03-03T10:17:04.086Z,100643.47
2023-03-03T10:19:54.037Z,100649.28
2023-03-03T10:22:43.491Z,100648.53
2023-03-03T10:25:53.879Z,100653.78
2023-03-03T10:28:58.387Z,100660.63
2023-03-03T10:32:12.664Z,100663.94
2023-03-03T10:35:16.376Z,100663.72
2023-03-03T10:38:14.618Z,100663.66
2023-03-03T10:41:17.501Z,100657.94
2023-03-03T10:44:25.682Z,100661.41
2023-03-03T10:47:23.539Z,100655.69
2023-03-03T10:50:11.282Z,100653.28
2023-03-03T10:53:09.124Z,100664.41
2023-03-03T10:56:35.381Z,100662.03
2023-03-03T10:59:39.812Z,100661.28
2023-03-03T11:02:22.877Z,100661.44
2023-03-03T11:05:11.161Z,100660.78
2023-03-03T11:07:54.895Z,100655.06
2023-03-03T11:11:07.440Z,100658.59
2023-03-03T11:13:49.468Z,100659.56
2023-03-03T11:16:48.808Z,100658.09
2023-03-03T11:19:44.125Z,100653.31
2023-03-03T11:22:36.766Z,100653.50
2023-03-03T11:25:18.177Z,100657.88
2023-03-03T11:28:20.934Z,100659.81
2023-03-03T11:31:13.987Z,100660.69
2023-03-03T11:34:01.259Z,100653.22
2023-03-03T11:36:36.957Z,100656.50
2023-03-03T11:39:13.407Z,100659.00
2023-03-03T11:41:52.228Z,100654.91
2023-03-03T11:44:33.188Z,100652.53
2023-03-03T11:47:05.526Z,100653.59
2023-03-03T11:49:52.199Z,100653.00
2023-03-03T11:52:53.207Z,100654.00
2023-03-03T11:55:42.069Z,100649.00
2023-03-03T11:58:20.442Z,100647.34
2023-03-03T12:01:14.913Z,100648.25
2023-03-03T12:04:00.716Z,100641.53
2023-03-03T12:07:12.998Z,100644.97
2023-03-03T12:10:19.056Z,100634.06
2023-03-03T12:13:03.830Z,100634.16
2023-03-03T12:16:04.597Z,100629.25
2023-03-03T12:18:54.834Z,100633.47
2023-03-03T12:22:05.933Z,100630.09
2023-03-03T12:24:54.046Z,100628.25
2023-03-03T12:27:43.045Z,100626.56
2023-03-03T12:30:53.482Z,100632.53
2023-03-03T12:34:26.228Z,100622.66
2023-03-03T12:37:14.603Z,100616.28
2023-03-03T12:39:56.710Z,100616.75
2023-03-03T12:43:23.270Z,100607.28
2023-03-03T12:46:03.851Z,100606.06
2023-03-03T12:48:45.651Z,100598.94
2023-03-03T12:51:48.212Z,100601.06
2023-03-03T12:54:42.787Z,100610.66
2023-03-03T12:57:38.229Z,100608.47
2023-03-03T13:00:11.095Z,100605.41
2023-03-03T13:02:49.923Z,100602.34
2023-03-03T13:05:39.256Z,100600.88
2023-03-03T13:08:31.865Z,100603.47
2023-03-03T13:11:28.571Z,100605.22
2023-03-03T13:14:23.019Z,100603.56
2023-03-03T13:17:17.420Z,100604.41
2023-03-03T13:20:11.922Z,100603.59
2023-03-03T13:22:59.189Z,100598.56
2023-03-03T13:25:59.212Z,100597.72
2023-03-03T13:29:07.611Z,100602.03
2023-03-03T13:31:40.668Z,100596.94
2023-03-03T13:34:39.568Z,100598.59
2023-03-03T13:37:15.511Z,100606.91
2023-03-03T13:40:17.507Z,100599.25
2023-03-03T13:42:50.687Z,100605.19
2023-03-03T13:45:50.280Z,100596.72
2023-03-03T13:48:38.577Z,100604.41
2023-03-03T13:51:31.765Z,100594.31
2023-03-03T13:54:35.338Z,100591.81
2023-03-03T13:57:43.941Z,100590.13
2023-03-03T14:00:27.925Z,100589.34
2023-03-03T14:03:03.932Z,100587.00
2023-03-03T14:05:39.226Z,100584.63
2023-03-03T14:08:18.422Z,100586.34
2023-03-03T14:11:10.741Z,100588.09
2023-03-03T14:13:58.721Z,100589.84
2023-03-03T14:16:57.441Z,100580.66
2023-03-03T14:19:36.593Z,100590.03
2023-03-03T14:22:24.030Z,100588.47
2023-03-03T14:25:06.245Z,100585.94
2023-03-03T14:27:47.680Z,100579.97
2023-03-03T14:30:26.201Z,100583.22
2023-03-03T14:33:09.771Z,100576.41
2023-03-03T14:35:50.727Z,100574.72
2023-03-03T14:38:35.965Z,100573.91
2023-03-03T14:41:39.329Z,100577.34
2023-03-03T14:44:36.442Z,100568.03
2023-03-03T14:47:09.203Z,100566.31
2023-03-03T14:49:38.552Z,100574.72
2023-03-03T14:52:17.511Z,100574.56
2023-03-03T14:54:54.526Z,100574.38
2023-03-03T14:57:54.548Z,100569.25
2023-03-03T15:00:24.144Z,100577.63
2023-03-03T15:03:19.833Z,100568.28
2023-03-03T15:05:58.059Z,100568.16
2023-03-03T15:08:35.957Z,100573.19
2023-03-03T15:11:25.551Z,100571.56
2023-03-03T15:13:52.595Z,100555.59
2023-03-03T15:16:30.101Z,100565.84
2023-03-03T15:20:14.941Z,100560.91
2023-03-03T15:23:19.580Z,100556.72
2023-03-03T15:25:59.656Z,100555.91
2023-03-03T15:28:55.726Z,100550.09
2023-03-03T15:31:45.418Z,100546.66
2023-03-03T15:34:44.001Z,100548.28
2023-03-03T15:37:35.067Z,100545.63
2023-03-03T15:40:28.808Z,100549.75
2023-03-03T15:43:05.736Z,100542.94
2023-03-03T15:45:47.622Z,100543.81
2023-03-03T15:48:42.140Z,100542.88
2023-03-03T15:52:02.482Z,100542.78
2023-03-03T15:54:50.895Z,100544.31
2023-03-03T15:57:52.635Z,100547.53
2023-03-03T16:01:12.936Z,100546.53
2023-03-03T16:03:47.178Z,100554.75
2023-03-03T16:06:37.284Z,100549.72
2023-03-03T16:09:57.589Z,100548.03
2023-03-03T16:12:53.188Z,100548.75
2023-03-03T16:15:34.804Z,100546.13
2023-03-03T16:18:10.635Z,100543.50
2023-03-03T16:20:53.878Z,100550.16
2023-03-03T16:23:47.173Z,100544.16
2023-03-03T16:26:32.503Z,100550.75
2023-03-03T16:29:49.774Z,100553.19
2023-03-03T16:32:46.364Z,100557.16
2023-03-03T16:35:31.837Z,100554.50
2023-03-03T16:38:06.460Z,100556.09
2023-03-03T16:40:53.985Z,100557.66
2023-03-03T16:43:45.313Z,100554.16
2023-03-03T16:46:28.746Z,100558.16
2023-03-03T16:49:27.123Z,100559.72
2023-03-03T16:52:15.312Z,100563.78
2023-03-03T16:54:54.981Z,100567.84
2023-03-03T16:57:45.661Z,100561.84
2023-03-03T17:00:20.933Z,100563.34
2023-03-03T17:02:47.598Z,100564.94
2023-03-03T17:06:00.457Z,100585.81
2023-03-03T17:08:39.054Z,100579.69
2023-03-03T17:11:23.285Z,100587.94
2023-03-03T17:14:17.534Z,100583.59
2023-03-03T17:17:12.139Z,100580.81
2023-03-03T17:20:11.816Z,100586.44
2023-03-03T17:23:00.117Z,100588.84
2023-03-03T17:26:09.879Z,100583.56
2023-03-03T17:29:08.875Z,100592.53
2023-03-03T17:32:12.160Z,100596.53
2023-03-03T17:35:07.048Z,100598.75
2023-03-03T17:38:30.600Z,100604.50
2023-03-03T17:41:11.014Z,100600.00
2023-03-03T17:44:23.670Z,100593.66
2023-03-03T17:47:00.333Z,100613.34
2023-03-03T17:49:58.340Z,100608.78
2023-03-03T17:52:43.109Z,100606.75
2023-03-03T17:55:55.905Z,100605.72
2023-03-03T18:00:56.247Z,100604.50
2023-03-03T18:02:38.499Z,100611.66
2023-03-03T18:05:31.157Z,100601.28
2023-03-03T18:08:08.933Z,100612.88
2023-03-03T18:11:18.988Z,100607.59
2023-03-03T18:14:01.359Z,100610.72
2023-03-03T18:16:39.771Z,100603.72
2023-03-03T18:19:26.982Z,100605.16
2023-03-03T18:22:13.966Z,100613.44
2023-03-03T18:24:49.805Z,100605.69
2023-03-03T18:27:25.387Z,100613.16
2023-03-03T18:30:10.584Z,100616.34
2023-03-03T18:33:08.605Z,100616.13
2023-03-03T18:35:45.397Z,100615.09
2023-03-03T18:38:29.993Z,100621.63
2023-03-03T18:41:13.101Z,100627.25
2023-03-03T18:46:56.758Z,100615.94
2023-03-03T18:50:33.927Z,100616.50
2023-03-03T18:53:15.750Z,100632.09
2023-03-03T18:55:50.283Z,100625.31
2023-03-03T18:58:17.005Z,100635.31
2023-03-03T19:00:54.479Z,100632.72
2023-03-03T19:03:45.429Z,100634.28
2023-03-03T19:06:28.405Z,100633.16
2023-03-03T19:08:58.415Z,100640.44
2023-03-03T19:11:44.839Z,100637.81
2023-03-03T19:14:27.771Z,100628.41
2023-03-03T19:16:57.848Z,100634.06
2023-03-03T19:19:34.935Z,100632.34
2023-03-03T19:22:29.960Z,100632.09
2023-03-03T19:25:08.656Z,100638.56
2023-03-03T19:28:12.938Z,100631.72
2023-03-03T19:30:45.819Z,100639.94
2023-03-03T19:33:31.714Z,100634.03
2023-03-03T19:36:44.860Z,100639.03
2023-03-03T19:39:47.759Z,100642.19
2023-03-03T19:42:29.050Z,100642.09
2023-03-03T19:45:19.113Z,100639.56
2023-03-03T19:48:22.751Z,100643.75
2023-03-03T19:51:41.874Z,100646.16
2023-03-03T19:54:38.445Z,100641.03
2023-03-03T20:06:36.415Z,100651.19
2023-03-03T21:08:54.171Z,100660.81
2023-03-03T21:11:59.722Z,100653.69
2023-03-03T21:15:50.359Z,100662.50
2023-03-03T21:19:33.966Z,100652.78
2023-03-03T21:22:12.134Z,100652.94
2023-03-03T21:25:35.341Z,100660.78
2023-03-03T21:28:45.375Z,100661.03
2023-03-03T21:31:54.650Z,100659.56
2023-03-03T21:34:47.149Z,100666.59
2023-03-03T21:37:47.463Z,100666.03
2023-03-03T21:40:27.470Z,100669.56
2023-03-03T21:43:58.350Z,100675.94
2023-03-03T21:46:46.814Z,100675.16
2023-03-03T21:49:17.203Z,100676.19
2023-03-03T21:51:59.846Z,100673.09
2023-03-03T21:54:32.774Z,100670.03
2023-03-03T21:57:01.971Z,100671.09
2023-03-03T21:59:29.004Z,100672.19
2023-03-03T22:02:10.552Z,100660.63
2023-03-03T22:07:41.182Z,100663.50
2023-03-03T22:10:18.666Z,100668.69
2023-03-03T22:13:15.854Z,100667.13
2023-03-03T22:15:45.202Z,100658.81
2023-03-03T22:21:21.385Z,100663.19
2023-03-03T22:23:48.368Z,100661.66
2023-03-03T22:26:15.327Z,100662.66
2023-03-03T22:28:44.260Z,100661.03
2023-03-03T22:31:11.333Z,100672.94
2023-03-03T22:33:38.098Z,100669.72
2023-03-03T22:36:05.308Z,100668.97
2023-03-03T22:38:32.170Z,100670.75
2023-03-03T22:40:59.495Z,100673.31
2023-03-03T22:43:27.466Z,100675.13
2023-03-03T22:45:54.371Z,100667.63
2023-03-03T22:48:23.107Z,100675.22
2023-03-03T22:50:54.036Z,100661.81
2023-03-03T22:53:21.983Z,100665.22
2023-03-03T22:55:48.795Z,100657.75
2023-03-03T22:58:21.232Z,100658.59
2023-03-03T23:00:48.937Z,100662.03
2023-03-03T23:03:16.495Z,100664.53
2023-03-03T23:05:43.900Z,100664.72
2023-03-03T23:08:15.084Z,100663.19
2023-03-03T23:10:42.254Z,100656.59
2023-03-03T23:13:10.416Z,100661.72
2023-03-03T23:15:37.207Z,100665.19
2023-03-03T23:18:04.282Z,100661.94
2023-03-03T23:20:32.017Z,100667.09
2023-03-03T23:22:59.331Z,100666.34
2023-03-03T23:25:26.797Z,100665.59
2023-03-03T23:27:53.616Z,100656.50
2023-03-03T23:30:21.633Z,100660.72
2023-03-03T23:32:49.161Z,100663.28
2023-03-03T23:35:16.810Z,100670.06
2023-03-03T23:37:44.875Z,100670.13
2023-03-03T23:40:14.067Z,100660.19
2023-03-03T23:42:40.982Z,100658.50
2023-03-03T23:45:09.643Z,100661.06
2023-03-03T23:47:36.906Z,100662.00
2023-03-03T23:50:04.749Z,100657.84
2023-03-03T23:52:31.562Z,100663.81
2023-03-03T23:54:58.432Z,100666.38
2023-03-03T23:57:25.303Z,100667.25
2023-03-03T23:59:52.156Z,100669.81
